sensor_id;sensor_type;location;lat;lon;timestamp;P1;durP1;ratioP1;P2;durP2;ratioP2
3726;SDS011;1879;45.876;12.300;2023-07-31T00:00:05;4.80;;;4.00;;
3726;SDS011;1879;45.876;12.300;2023-07-31T00:02:34;4.03;;;3.73;;
3726;SDS011;1879;45.876;12.300;2023-07-31T00:05:01;4.57;;;4.27;;
3726;SDS011;1879;45.876;12.300;2023-07-31T00:07:28;4.23;;;3.87;;
3726;SDS011;1879;45.876;12.300;2023-07-31T00:09:55;4.40;;;4.00;;
3726;SDS011;1879;45.876;12.300;2023-07-31T00:12:24;3.70;;;3.40;;
3726;SDS011;1879;45.876;12.300;2023-07-31T00:14:51;3.60;;;3.30;;
3726;SDS011;1879;45.876;12.300;2023-07-31T00:17:18;4.50;;;4.10;;
3726;SDS011;1879;45.876;12.300;2023-07-31T00:19:45;3.80;;;3.50;;
3726;SDS011;1879;45.876;12.300;2023-07-31T00:22:14;4.60;;;4.00;;
3726;SDS011;1879;45.876;12.300;2023-07-31T00:24:41;4.23;;;3.93;;
3726;SDS011;1879;45.876;12.300;2023-07-31T00:27:08;3.80;;;3.50;;
3726;SDS011;1879;45.876;12.300;2023-07-31T00:29:36;4.30;;;3.90;;
3726;SDS011;1879;45.876;12.300;2023-07-31T00:32:03;4.17;;;3.87;;
3726;SDS011;1879;45.876;12.300;2023-07-31T00:34:31;4.43;;;4.00;;
3726;SDS011;1879;45.876;12.300;2023-07-31T00:36:58;4.50;;;4.20;;
3726;SDS011;1879;45.876;12.300;2023-07-31T00:39:25;4.30;;;3.90;;
3726;SDS011;1879;45.876;12.300;2023-07-31T00:41:52;4.10;;;3.80;;
3726;SDS011;1879;45.876;12.300;2023-07-31T00:44:19;3.93;;;3.63;;
3726;SDS011;1879;45.876;12.300;2023-07-31T00:46:47;5.50;;;3.83;;
3726;SDS011;1879;45.876;12.300;2023-07-31T00:49:15;5.00;;;4.60;;
3726;SDS011;1879;45.876;12.300;2023-07-31T00:51:42;7.27;;;4.40;;
3726;SDS011;1879;45.876;12.300;2023-07-31T00:54:09;4.03;;;3.70;;
3726;SDS011;1879;45.876;12.300;2023-07-31T00:56:37;4.70;;;3.80;;
3726;SDS011;1879;45.876;12.300;2023-07-31T00:59:04;4.70;;;4.23;;
3726;SDS011;1879;45.876;12.300;2023-07-31T01:01:31;4.20;;;3.80;;
3726;SDS011;1879;45.876;12.300;2023-07-31T01:03:59;4.43;;;4.03;;
3726;SDS011;1879;45.876;12.300;2023-07-31T01:06:28;4.30;;;4.00;;
3726;SDS011;1879;45.876;12.300;2023-07-31T01:09:02;5.80;;;4.40;;
3726;SDS011;1879;45.876;12.300;2023-07-31T01:11:35;4.50;;;4.10;;
3726;SDS011;1879;45.876;12.300;2023-07-31T01:14:09;4.77;;;4.47;;
3726;SDS011;1879;45.876;12.300;2023-07-31T01:16:36;4.70;;;4.40;;
3726;SDS011;1879;45.876;12.300;2023-07-31T01:19:04;5.10;;;4.03;;
3726;SDS011;1879;45.876;12.300;2023-07-31T01:21:41;4.10;;;3.80;;
3726;SDS011;1879;45.876;12.300;2023-07-31T01:24:22;4.30;;;4.00;;
3726;SDS011;1879;45.876;12.300;2023-07-31T01:26:57;3.80;;;3.50;;
3726;SDS011;1879;45.876;12.300;2023-07-31T01:29:32;4.10;;;3.80;;
3726;SDS011;1879;45.876;12.300;2023-07-31T01:32:03;3.20;;;3.00;;
3726;SDS011;1879;45.876;12.300;2023-07-31T01:34:32;3.70;;;3.50;;
3726;SDS011;1879;45.876;12.300;2023-07-31T01:37:01;4.00;;;3.70;;
3726;SDS011;1879;45.876;12.300;2023-07-31T01:39:28;3.27;;;2.97;;
3726;SDS011;1879;45.876;12.300;2023-07-31T01:41:55;4.57;;;3.50;;
3726;SDS011;1879;45.876;12.300;2023-07-31T01:44:23;3.30;;;3.10;;
3726;SDS011;1879;45.876;12.300;2023-07-31T01:46:50;5.93;;;2.90;;
3726;SDS011;1879;45.876;12.300;2023-07-31T01:49:17;3.50;;;3.20;;
3726;SDS011;1879;45.876;12.300;2023-07-31T01:51:44;3.40;;;3.20;;
3726;SDS011;1879;45.876;12.300;2023-07-31T01:54:11;2.97;;;2.77;;
3726;SDS011;1879;45.876;12.300;2023-07-31T01:56:38;3.40;;;3.10;;
3726;SDS011;1879;45.876;12.300;2023-07-31T01:59:06;3.30;;;3.10;;
3726;SDS011;1879;45.876;12.300;2023-07-31T02:01:33;3.37;;;2.90;;
3726;SDS011;1879;45.876;12.300;2023-07-31T02:04:00;2.57;;;2.37;;
3726;SDS011;1879;45.876;12.300;2023-07-31T02:06:28;3.90;;;3.40;;
3726;SDS011;1879;45.876;12.300;2023-07-31T02:08:55;4.40;;;2.63;;
3726;SDS011;1879;45.876;12.300;2023-07-31T02:11:22;3.00;;;2.77;;
3726;SDS011;1879;45.876;12.300;2023-07-31T02:13:49;3.03;;;2.73;;
3726;SDS011;1879;45.876;12.300;2023-07-31T02:16:17;2.90;;;2.70;;
3726;SDS011;1879;45.876;12.300;2023-07-31T02:18:44;3.10;;;2.80;;
3726;SDS011;1879;45.876;12.300;2023-07-31T02:21:11;3.10;;;2.33;;
3726;SDS011;1879;45.876;12.300;2023-07-31T02:23:38;3.00;;;2.80;;
3726;SDS011;1879;45.876;12.300;2023-07-31T02:26:05;3.53;;;2.97;;
3726;SDS011;1879;45.876;12.300;2023-07-31T02:28:32;3.30;;;3.07;;
3726;SDS011;1879;45.876;12.300;2023-07-31T02:30:59;4.17;;;3.07;;
3726;SDS011;1879;45.876;12.300;2023-07-31T02:33:27;2.80;;;2.60;;
3726;SDS011;1879;45.876;12.300;2023-07-31T02:35:54;3.10;;;2.80;;
3726;SDS011;1879;45.876;12.300;2023-07-31T02:38:21;3.30;;;3.07;;
3726;SDS011;1879;45.876;12.300;2023-07-31T02:40:48;3.23;;;2.80;;
3726;SDS011;1879;45.876;12.300;2023-07-31T02:43:15;3.33;;;3.03;;
3726;SDS011;1879;45.876;12.300;2023-07-31T02:45:42;3.00;;;2.70;;
3726;SDS011;1879;45.876;12.300;2023-07-31T02:48:09;3.37;;;3.07;;
3726;SDS011;1879;45.876;12.300;2023-07-31T02:50:37;3.23;;;3.00;;
3726;SDS011;1879;45.876;12.300;2023-07-31T02:53:04;3.50;;;3.20;;
3726;SDS011;1879;45.876;12.300;2023-07-31T02:55:31;3.07;;;2.80;;
3726;SDS011;1879;45.876;12.300;2023-07-31T02:57:58;4.40;;;3.30;;
3726;SDS011;1879;45.876;12.300;2023-07-31T03:00:25;2.80;;;2.60;;
3726;SDS011;1879;45.876;12.300;2023-07-31T03:02:52;3.60;;;3.17;;
3726;SDS011;1879;45.876;12.300;2023-07-31T03:05:19;2.80;;;2.60;;
3726;SDS011;1879;45.876;12.300;2023-07-31T03:07:47;3.50;;;2.83;;
3726;SDS011;1879;45.876;12.300;2023-07-31T03:10:14;4.80;;;3.17;;
3726;SDS011;1879;45.876;12.300;2023-07-31T03:12:41;3.30;;;3.10;;
3726;SDS011;1879;45.876;12.300;2023-07-31T03:15:09;8.03;;;3.27;;
3726;SDS011;1879;45.876;12.300;2023-07-31T03:17:36;3.10;;;2.63;;
3726;SDS011;1879;45.876;12.300;2023-07-31T03:20:03;4.37;;;3.30;;
3726;SDS011;1879;45.876;12.300;2023-07-31T03:22:31;4.50;;;3.50;;
3726;SDS011;1879;45.876;12.300;2023-07-31T03:25:01;3.53;;;3.23;;
3726;SDS011;1879;45.876;12.300;2023-07-31T03:27:28;4.13;;;3.43;;
3726;SDS011;1879;45.876;12.300;2023-07-31T03:29:55;3.60;;;3.30;;
3726;SDS011;1879;45.876;12.300;2023-07-31T03:32:21;4.40;;;4.00;;
3726;SDS011;1879;45.876;12.300;2023-07-31T03:34:49;3.77;;;3.47;;
3726;SDS011;1879;45.876;12.300;2023-07-31T03:37:16;3.57;;;3.27;;
3726;SDS011;1879;45.876;12.300;2023-07-31T03:39:42;4.17;;;3.60;;
3726;SDS011;1879;45.876;12.300;2023-07-31T03:42:11;3.97;;;3.57;;
3726;SDS011;1879;45.876;12.300;2023-07-31T03:44:38;4.23;;;3.50;;
3726;SDS011;1879;45.876;12.300;2023-07-31T03:47:05;3.83;;;3.53;;
3726;SDS011;1879;45.876;12.300;2023-07-31T03:49:32;3.67;;;3.47;;
3726;SDS011;1879;45.876;12.300;2023-07-31T03:51:59;3.77;;;3.47;;
3726;SDS011;1879;45.876;12.300;2023-07-31T03:54:26;4.83;;;3.93;;
3726;SDS011;1879;45.876;12.300;2023-07-31T03:56:53;3.80;;;3.50;;
3726;SDS011;1879;45.876;12.300;2023-07-31T03:59:21;3.87;;;3.30;;
3726;SDS011;1879;45.876;12.300;2023-07-31T04:01:48;4.70;;;3.60;;
3726;SDS011;1879;45.876;12.300;2023-07-31T04:04:15;4.90;;;3.30;;
3726;SDS011;1879;45.876;12.300;2023-07-31T04:06:42;4.00;;;3.70;;
3726;SDS011;1879;45.876;12.300;2023-07-31T04:09:09;7.03;;;3.47;;
3726;SDS011;1879;45.876;12.300;2023-07-31T04:11:36;3.70;;;3.40;;
3726;SDS011;1879;45.876;12.300;2023-07-31T04:14:04;4.67;;;3.70;;
3726;SDS011;1879;45.876;12.300;2023-07-31T04:16:32;6.30;;;3.93;;
3726;SDS011;1879;45.876;12.300;2023-07-31T04:18:59;3.73;;;3.20;;
3726;SDS011;1879;45.876;12.300;2023-07-31T04:21:26;5.50;;;3.50;;
3726;SDS011;1879;45.876;12.300;2023-07-31T04:23:53;3.90;;;3.43;;
3726;SDS011;1879;45.876;12.300;2023-07-31T04:26:21;4.27;;;3.83;;
3726;SDS011;1879;45.876;12.300;2023-07-31T04:28:48;5.33;;;4.00;;
3726;SDS011;1879;45.876;12.300;2023-07-31T04:31:15;4.77;;;3.93;;
3726;SDS011;1879;45.876;12.300;2023-07-31T04:33:43;5.00;;;3.90;;
3726;SDS011;1879;45.876;12.300;2023-07-31T04:36:10;4.07;;;3.77;;
3726;SDS011;1879;45.876;12.300;2023-07-31T04:38:37;4.03;;;3.63;;
3726;SDS011;1879;45.876;12.300;2023-07-31T04:41:04;3.73;;;3.43;;
3726;SDS011;1879;45.876;12.300;2023-07-31T04:43:31;4.10;;;3.80;;
3726;SDS011;1879;45.876;12.300;2023-07-31T04:45:58;3.70;;;3.40;;
3726;SDS011;1879;45.876;12.300;2023-07-31T04:48:25;4.17;;;3.77;;
3726;SDS011;1879;45.876;12.300;2023-07-31T04:50:54;5.30;;;3.60;;
3726;SDS011;1879;45.876;12.300;2023-07-31T04:53:21;4.30;;;3.73;;
3726;SDS011;1879;45.876;12.300;2023-07-31T04:55:48;3.77;;;3.47;;
3726;SDS011;1879;45.876;12.300;2023-07-31T04:58:15;4.13;;;3.47;;
3726;SDS011;1879;45.876;12.300;2023-07-31T05:00:42;4.53;;;4.10;;
3726;SDS011;1879;45.876;12.300;2023-07-31T05:03:09;4.63;;;3.73;;
3726;SDS011;1879;45.876;12.300;2023-07-31T05:05:37;4.23;;;3.90;;
3726;SDS011;1879;45.876;12.300;2023-07-31T05:08:05;4.67;;;3.53;;
3726;SDS011;1879;45.876;12.300;2023-07-31T05:10:32;5.63;;;3.67;;
3726;SDS011;1879;45.876;12.300;2023-07-31T05:12:59;3.20;;;2.90;;
3726;SDS011;1879;45.876;12.300;2023-07-31T05:15:26;3.87;;;3.57;;
3726;SDS011;1879;45.876;12.300;2023-07-31T05:17:53;5.10;;;3.63;;
3726;SDS011;1879;45.876;12.300;2023-07-31T05:20:20;3.67;;;3.30;;
3726;SDS011;1879;45.876;12.300;2023-07-31T05:22:47;3.70;;;3.40;;
3726;SDS011;1879;45.876;12.300;2023-07-31T05:25:15;5.63;;;3.30;;
3726;SDS011;1879;45.876;12.300;2023-07-31T05:27:42;3.60;;;3.30;;
3726;SDS011;1879;45.876;12.300;2023-07-31T05:30:09;4.43;;;3.67;;
3726;SDS011;1879;45.876;12.300;2023-07-31T05:32:36;3.43;;;3.20;;
3726;SDS011;1879;45.876;12.300;2023-07-31T05:35:04;3.60;;;3.30;;
3726;SDS011;1879;45.876;12.300;2023-07-31T05:37:31;3.10;;;2.80;;
3726;SDS011;1879;45.876;12.300;2023-07-31T05:39:58;3.23;;;3.03;;
3726;SDS011;1879;45.876;12.300;2023-07-31T05:42:26;4.17;;;2.90;;
3726;SDS011;1879;45.876;12.300;2023-07-31T05:44:53;4.60;;;3.10;;
3726;SDS011;1879;45.876;12.300;2023-07-31T05:47:20;2.63;;;2.43;;
3726;SDS011;1879;45.876;12.300;2023-07-31T05:49:48;4.50;;;2.93;;
3726;SDS011;1879;45.876;12.300;2023-07-31T05:52:17;6.57;;;2.80;;
3726;SDS011;1879;45.876;12.300;2023-07-31T05:54:44;2.90;;;2.50;;
3726;SDS011;1879;45.876;12.300;2023-07-31T05:57:12;6.00;;;2.60;;
3726;SDS011;1879;45.876;12.300;2023-07-31T05:59:40;4.00;;;2.70;;
3726;SDS011;1879;45.876;12.300;2023-07-31T06:02:07;2.87;;;2.40;;
3726;SDS011;1879;45.876;12.300;2023-07-31T06:04:34;2.40;;;2.20;;
3726;SDS011;1879;45.876;12.300;2023-07-31T06:07:01;3.07;;;2.37;;
3726;SDS011;1879;45.876;12.300;2023-07-31T06:09:28;3.20;;;2.27;;
3726;SDS011;1879;45.876;12.300;2023-07-31T06:11:55;3.20;;;2.90;;
3726;SDS011;1879;45.876;12.300;2023-07-31T06:14:22;3.37;;;2.50;;
3726;SDS011;1879;45.876;12.300;2023-07-31T06:16:50;3.87;;;2.67;;
3726;SDS011;1879;45.876;12.300;2023-07-31T06:19:17;3.20;;;2.37;;
3726;SDS011;1879;45.876;12.300;2023-07-31T06:21:45;3.27;;;2.37;;
3726;SDS011;1879;45.876;12.300;2023-07-31T06:24:12;3.10;;;2.63;;
3726;SDS011;1879;45.876;12.300;2023-07-31T06:26:44;2.60;;;1.80;;
3726;SDS011;1879;45.876;12.300;2023-07-31T06:29:11;3.77;;;2.40;;
3726;SDS011;1879;45.876;12.300;2023-07-31T06:31:38;2.67;;;2.40;;
3726;SDS011;1879;45.876;12.300;2023-07-31T06:34:06;2.90;;;2.47;;
3726;SDS011;1879;45.876;12.300;2023-07-31T06:36:33;2.47;;;2.27;;
3726;SDS011;1879;45.876;12.300;2023-07-31T06:39:00;2.60;;;2.40;;
3726;SDS011;1879;45.876;12.300;2023-07-31T06:41:27;4.23;;;2.83;;
3726;SDS011;1879;45.876;12.300;2023-07-31T06:43:54;2.53;;;2.33;;
3726;SDS011;1879;45.876;12.300;2023-07-31T06:46:21;3.63;;;2.77;;
3726;SDS011;1879;45.876;12.300;2023-07-31T06:48:48;2.97;;;2.40;;
3726;SDS011;1879;45.876;12.300;2023-07-31T06:51:16;3.13;;;2.87;;
3726;SDS011;1879;45.876;12.300;2023-07-31T06:53:43;3.20;;;2.90;;
3726;SDS011;1879;45.876;12.300;2023-07-31T06:56:10;3.20;;;2.90;;
3726;SDS011;1879;45.876;12.300;2023-07-31T06:58:37;3.80;;;3.23;;
3726;SDS011;1879;45.876;12.300;2023-07-31T07:01:04;4.60;;;3.40;;
3726;SDS011;1879;45.876;12.300;2023-07-31T07:03:32;4.57;;;2.90;;
3726;SDS011;1879;45.876;12.300;2023-07-31T07:05:58;3.40;;;2.80;;
3726;SDS011;1879;45.876;12.300;2023-07-31T07:08:27;4.27;;;3.03;;
3726;SDS011;1879;45.876;12.300;2023-07-31T07:10:54;3.60;;;2.47;;
3726;SDS011;1879;45.876;12.300;2023-07-31T07:13:21;2.73;;;2.53;;
3726;SDS011;1879;45.876;12.300;2023-07-31T07:15:48;4.80;;;2.67;;
3726;SDS011;1879;45.876;12.300;2023-07-31T07:18:15;3.10;;;2.40;;
3726;SDS011;1879;45.876;12.300;2023-07-31T07:20:45;4.28;;;2.15;;
3726;SDS011;1879;45.876;12.300;2023-07-31T07:23:13;3.00;;;2.10;;
3726;SDS011;1879;45.876;12.300;2023-07-31T07:25:42;4.57;;;2.10;;
3726;SDS011;1879;45.876;12.300;2023-07-31T07:28:09;2.90;;;1.80;;
3726;SDS011;1879;45.876;12.300;2023-07-31T07:30:36;2.20;;;2.00;;
3726;SDS011;1879;45.876;12.300;2023-07-31T07:33:03;2.30;;;2.10;;
3726;SDS011;1879;45.876;12.300;2023-07-31T07:35:32;2.20;;;2.00;;
3726;SDS011;1879;45.876;12.300;2023-07-31T07:38:00;2.67;;;1.93;;
3726;SDS011;1879;45.876;12.300;2023-07-31T07:40:27;2.43;;;2.23;;
3726;SDS011;1879;45.876;12.300;2023-07-31T07:42:55;2.17;;;1.97;;
3726;SDS011;1879;45.876;12.300;2023-07-31T07:45:22;2.00;;;1.80;;
3726;SDS011;1879;45.876;12.300;2023-07-31T07:47:49;2.97;;;2.00;;
3726;SDS011;1879;45.876;12.300;2023-07-31T07:50:16;2.30;;;2.10;;
3726;SDS011;1879;45.876;12.300;2023-07-31T07:52:43;2.73;;;2.20;;
3726;SDS011;1879;45.876;12.300;2023-07-31T07:55:10;2.20;;;2.00;;
3726;SDS011;1879;45.876;12.300;2023-07-31T07:57:37;2.90;;;2.17;;
3726;SDS011;1879;45.876;12.300;2023-07-31T08:00:07;2.60;;;2.10;;
3726;SDS011;1879;45.876;12.300;2023-07-31T08:02:35;2.50;;;1.63;;
3726;SDS011;1879;45.876;12.300;2023-07-31T08:05:02;1.93;;;1.73;;
3726;SDS011;1879;45.876;12.300;2023-07-31T08:07:30;2.77;;;1.97;;
3726;SDS011;1879;45.876;12.300;2023-07-31T08:09:57;2.97;;;1.70;;
3726;SDS011;1879;45.876;12.300;2023-07-31T08:12:24;4.90;;;2.40;;
3726;SDS011;1879;45.876;12.300;2023-07-31T08:14:51;2.70;;;1.95;;
3726;SDS011;1879;45.876;12.300;2023-07-31T08:17:19;2.17;;;1.27;;
3726;SDS011;1879;45.876;12.300;2023-07-31T08:19:46;3.78;;;1.70;;
3726;SDS011;1879;45.876;12.300;2023-07-31T08:22:13;2.33;;;1.73;;
3726;SDS011;1879;45.876;12.300;2023-07-31T08:24:40;2.17;;;1.73;;
3726;SDS011;1879;45.876;12.300;2023-07-31T08:27:07;2.33;;;1.70;;
3726;SDS011;1879;45.876;12.300;2023-07-31T08:29:34;3.40;;;2.27;;
3726;SDS011;1879;45.876;12.300;2023-07-31T08:32:01;2.10;;;1.90;;
3726;SDS011;1879;45.876;12.300;2023-07-31T08:34:29;2.77;;;1.90;;
3726;SDS011;1879;45.876;12.300;2023-07-31T08:36:56;2.30;;;2.10;;
3726;SDS011;1879;45.876;12.300;2023-07-31T08:39:23;2.50;;;1.97;;
3726;SDS011;1879;45.876;12.300;2023-07-31T08:41:50;2.77;;;1.97;;
3726;SDS011;1879;45.876;12.300;2023-07-31T08:44:17;1.80;;;1.70;;
3726;SDS011;1879;45.876;12.300;2023-07-31T08:46:45;2.20;;;2.00;;
3726;SDS011;1879;45.876;12.300;2023-07-31T08:49:14;2.33;;;1.97;;
3726;SDS011;1879;45.876;12.300;2023-07-31T08:51:43;1.83;;;1.73;;
3726;SDS011;1879;45.876;12.300;2023-07-31T08:54:12;2.20;;;2.00;;
3726;SDS011;1879;45.876;12.300;2023-07-31T08:56:39;2.47;;;1.60;;
3726;SDS011;1879;45.876;12.300;2023-07-31T08:59:07;4.40;;;3.40;;
3726;SDS011;1879;45.876;12.300;2023-07-31T09:01:35;4.67;;;2.90;;
3726;SDS011;1879;45.876;12.300;2023-07-31T09:04:09;3.23;;;2.20;;
3726;SDS011;1879;45.876;12.300;2023-07-31T09:06:39;2.23;;;1.90;;
3726;SDS011;1879;45.876;12.300;2023-07-31T09:09:08;2.40;;;2.20;;
3726;SDS011;1879;45.876;12.300;2023-07-31T09:11:35;2.80;;;2.00;;
3726;SDS011;1879;45.876;12.300;2023-07-31T09:14:02;3.83;;;1.83;;
3726;SDS011;1879;45.876;12.300;2023-07-31T09:16:33;3.00;;;2.03;;
3726;SDS011;1879;45.876;12.300;2023-07-31T09:19:01;4.80;;;2.13;;
3726;SDS011;1879;45.876;12.300;2023-07-31T09:21:28;2.30;;;2.10;;
3726;SDS011;1879;45.876;12.300;2023-07-31T09:23:55;2.90;;;2.03;;
3726;SDS011;1879;45.876;12.300;2023-07-31T09:26:30;2.30;;;2.10;;
3726;SDS011;1879;45.876;12.300;2023-07-31T09:28:58;2.30;;;2.07;;
3726;SDS011;1879;45.876;12.300;2023-07-31T09:31:32;1.97;;;1.80;;
3726;SDS011;1879;45.876;12.300;2023-07-31T09:33:59;2.43;;;2.00;;
3726;SDS011;1879;45.876;12.300;2023-07-31T09:36:28;2.03;;;1.83;;
3726;SDS011;1879;45.876;12.300;2023-07-31T09:38:58;3.00;;;2.13;;
3726;SDS011;1879;45.876;12.300;2023-07-31T09:41:30;2.33;;;2.07;;
3726;SDS011;1879;45.876;12.300;2023-07-31T09:44:02;4.40;;;3.60;;
3726;SDS011;1879;45.876;12.300;2023-07-31T09:46:29;2.27;;;1.90;;
3726;SDS011;1879;45.876;12.300;2023-07-31T09:49:03;2.20;;;2.00;;
3726;SDS011;1879;45.876;12.300;2023-07-31T09:51:31;3.40;;;2.20;;
3726;SDS011;1879;45.876;12.300;2023-07-31T09:54:03;2.47;;;2.10;;
3726;SDS011;1879;45.876;12.300;2023-07-31T09:56:36;2.00;;;1.90;;
3726;SDS011;1879;45.876;12.300;2023-07-31T09:59:04;2.20;;;1.80;;
3726;SDS011;1879;45.876;12.300;2023-07-31T10:01:31;2.17;;;1.97;;
3726;SDS011;1879;45.876;12.300;2023-07-31T10:03:59;3.10;;;2.20;;
3726;SDS011;1879;45.876;12.300;2023-07-31T10:06:28;2.40;;;1.80;;
3726;SDS011;1879;45.876;12.300;2023-07-31T10:08:55;1.83;;;1.73;;
3726;SDS011;1879;45.876;12.300;2023-07-31T10:11:23;2.27;;;2.07;;
3726;SDS011;1879;45.876;12.300;2023-07-31T10:13:55;2.60;;;1.83;;
3726;SDS011;1879;45.876;12.300;2023-07-31T10:16:22;1.90;;;1.80;;
3726;SDS011;1879;45.876;12.300;2023-07-31T10:18:49;2.80;;;1.80;;
3726;SDS011;1879;45.876;12.300;2023-07-31T10:21:18;1.97;;;1.77;;
3726;SDS011;1879;45.876;12.300;2023-07-31T10:23:45;2.43;;;2.20;;
3726;SDS011;1879;45.876;12.300;2023-07-31T10:26:14;2.17;;;1.90;;
3726;SDS011;1879;45.876;12.300;2023-07-31T10:28:45;2.60;;;2.40;;
3726;SDS011;1879;45.876;12.300;2023-07-31T10:31:15;2.67;;;2.10;;
3726;SDS011;1879;45.876;12.300;2023-07-31T10:33:44;3.73;;;2.17;;
3726;SDS011;1879;45.876;12.300;2023-07-31T10:36:12;3.37;;;2.50;;
3726;SDS011;1879;45.876;12.300;2023-07-31T10:38:39;2.30;;;2.10;;
3726;SDS011;1879;45.876;12.300;2023-07-31T10:41:09;2.97;;;2.10;;
3726;SDS011;1879;45.876;12.300;2023-07-31T10:43:37;3.33;;;2.40;;
3726;SDS011;1879;45.876;12.300;2023-07-31T10:46:07;2.20;;;2.00;;
3726;SDS011;1879;45.876;12.300;2023-07-31T10:48:36;2.60;;;2.27;;
3726;SDS011;1879;45.876;12.300;2023-07-31T10:51:06;2.30;;;2.00;;
3726;SDS011;1879;45.876;12.300;2023-07-31T10:53:36;2.20;;;1.93;;
3726;SDS011;1879;45.876;12.300;2023-07-31T10:56:03;3.00;;;2.30;;
3726;SDS011;1879;45.876;12.300;2023-07-31T10:58:31;2.30;;;2.10;;
3726;SDS011;1879;45.876;12.300;2023-07-31T11:01:00;2.10;;;1.90;;
3726;SDS011;1879;45.876;12.300;2023-07-31T11:03:41;2.67;;;2.47;;
3726;SDS011;1879;45.876;12.300;2023-07-31T11:06:10;2.53;;;2.30;;
3726;SDS011;1879;45.876;12.300;2023-07-31T11:08:41;3.60;;;2.30;;
3726;SDS011;1879;45.876;12.300;2023-07-31T11:11:09;2.60;;;2.40;;
3726;SDS011;1879;45.876;12.300;2023-07-31T11:13:41;3.13;;;2.83;;
3726;SDS011;1879;45.876;12.300;2023-07-31T11:16:10;2.40;;;2.20;;
3726;SDS011;1879;45.876;12.300;2023-07-31T11:18:38;2.83;;;2.17;;
3726;SDS011;1879;45.876;12.300;2023-07-31T11:21:08;2.00;;;1.90;;
3726;SDS011;1879;45.876;12.300;2023-07-31T11:23:38;2.93;;;2.63;;
3726;SDS011;1879;45.876;12.300;2023-07-31T11:26:05;2.57;;;2.37;;
3726;SDS011;1879;45.876;12.300;2023-07-31T11:28:33;2.37;;;2.17;;
3726;SDS011;1879;45.876;12.300;2023-07-31T11:31:01;2.40;;;2.20;;
3726;SDS011;1879;45.876;12.300;2023-07-31T11:33:29;4.83;;;2.93;;
3726;SDS011;1879;45.876;12.300;2023-07-31T11:35:56;4.97;;;3.33;;
3726;SDS011;1879;45.876;12.300;2023-07-31T11:38:26;32.70;;;11.03;;
3726;SDS011;1879;45.876;12.300;2023-07-31T11:40:55;12.80;;;6.17;;
3726;SDS011;1879;45.876;12.300;2023-07-31T11:43:22;6.13;;;2.50;;
3726;SDS011;1879;45.876;12.300;2023-07-31T11:45:52;8.23;;;4.30;;
3726;SDS011;1879;45.876;12.300;2023-07-31T11:48:21;10.33;;;4.37;;
3726;SDS011;1879;45.876;12.300;2023-07-31T11:50:49;3.03;;;2.73;;
3726;SDS011;1879;45.876;12.300;2023-07-31T11:53:17;3.17;;;2.73;;
3726;SDS011;1879;45.876;12.300;2023-07-31T11:55:49;2.77;;;2.27;;
3726;SDS011;1879;45.876;12.300;2023-07-31T11:58:16;2.37;;;2.10;;
3726;SDS011;1879;45.876;12.300;2023-07-31T12:00:45;2.30;;;1.97;;
3726;SDS011;1879;45.876;12.300;2023-07-31T12:03:13;3.40;;;1.97;;
3726;SDS011;1879;45.876;12.300;2023-07-31T12:05:40;3.60;;;2.47;;
3726;SDS011;1879;45.876;12.300;2023-07-31T12:08:10;2.80;;;2.03;;
3726;SDS011;1879;45.876;12.300;2023-07-31T12:10:38;2.20;;;2.00;;
3726;SDS011;1879;45.876;12.300;2023-07-31T12:13:08;2.30;;;2.10;;
3726;SDS011;1879;45.876;12.300;2023-07-31T12:15:39;2.43;;;2.23;;
3726;SDS011;1879;45.876;12.300;2023-07-31T12:18:07;2.40;;;2.20;;
3726;SDS011;1879;45.876;12.300;2023-07-31T12:20:39;3.47;;;2.03;;
3726;SDS011;1879;45.876;12.300;2023-07-31T12:23:12;5.07;;;2.43;;
3726;SDS011;1879;45.876;12.300;2023-07-31T12:25:43;2.17;;;1.93;;
3726;SDS011;1879;45.876;12.300;2023-07-31T12:28:11;2.53;;;2.10;;
3726;SDS011;1879;45.876;12.300;2023-07-31T12:30:39;4.43;;;2.00;;
3726;SDS011;1879;45.876;12.300;2023-07-31T12:33:06;3.10;;;2.07;;
3726;SDS011;1879;45.876;12.300;2023-07-31T12:35:40;1.80;;;1.70;;
3726;SDS011;1879;45.876;12.300;2023-07-31T12:38:09;2.83;;;1.83;;
3726;SDS011;1879;45.876;12.300;2023-07-31T12:40:37;1.70;;;1.60;;
3726;SDS011;1879;45.876;12.300;2023-07-31T12:43:05;2.70;;;1.70;;
3726;SDS011;1879;45.876;12.300;2023-07-31T12:45:33;2.23;;;2.00;;
3726;SDS011;1879;45.876;12.300;2023-07-31T12:48:01;2.00;;;1.90;;
3726;SDS011;1879;45.876;12.300;2023-07-31T12:50:28;2.10;;;1.90;;
3726;SDS011;1879;45.876;12.300;2023-07-31T12:52:55;2.07;;;1.97;;
3726;SDS011;1879;45.876;12.300;2023-07-31T12:55:23;2.47;;;1.87;;
3726;SDS011;1879;45.876;12.300;2023-07-31T12:57:50;4.30;;;1.30;;
3726;SDS011;1879;45.876;12.300;2023-07-31T13:00:17;1.83;;;1.73;;
3726;SDS011;1879;45.876;12.300;2023-07-31T13:02:46;2.00;;;1.77;;
3726;SDS011;1879;45.876;12.300;2023-07-31T13:05:13;1.60;;;1.50;;
3726;SDS011;1879;45.876;12.300;2023-07-31T13:07:40;1.80;;;1.50;;
3726;SDS011;1879;45.876;12.300;2023-07-31T13:10:07;1.60;;;1.50;;
3726;SDS011;1879;45.876;12.300;2023-07-31T13:12:34;3.43;;;1.97;;
3726;SDS011;1879;45.876;12.300;2023-07-31T13:15:02;2.10;;;1.87;;
3726;SDS011;1879;45.876;12.300;2023-07-31T13:17:29;1.87;;;1.77;;
3726;SDS011;1879;45.876;12.300;2023-07-31T13:19:57;2.13;;;1.93;;
3726;SDS011;1879;45.876;12.300;2023-07-31T13:22:25;2.67;;;1.83;;
3726;SDS011;1879;45.876;12.300;2023-07-31T13:24:52;2.53;;;1.50;;
3726;SDS011;1879;45.876;12.300;2023-07-31T13:27:19;2.10;;;1.90;;
3726;SDS011;1879;45.876;12.300;2023-07-31T13:29:46;2.00;;;1.63;;
3726;SDS011;1879;45.876;12.300;2023-07-31T13:32:13;1.70;;;1.60;;
3726;SDS011;1879;45.876;12.300;2023-07-31T13:34:41;5.17;;;2.00;;
3726;SDS011;1879;45.876;12.300;2023-07-31T13:37:10;1.60;;;1.50;;
3726;SDS011;1879;45.876;12.300;2023-07-31T13:39:37;2.00;;;1.80;;
3726;SDS011;1879;45.876;12.300;2023-07-31T13:42:04;1.67;;;1.57;;
3726;SDS011;1879;45.876;12.300;2023-07-31T13:44:33;1.90;;;1.60;;
3726;SDS011;1879;45.876;12.300;2023-07-31T13:47:00;1.70;;;1.60;;
3726;SDS011;1879;45.876;12.300;2023-07-31T13:49:27;2.00;;;1.80;;
3726;SDS011;1879;45.876;12.300;2023-07-31T13:51:54;1.70;;;1.60;;
3726;SDS011;1879;45.876;12.300;2023-07-31T13:54:23;1.80;;;1.70;;
3726;SDS011;1879;45.876;12.300;2023-07-31T13:56:50;3.30;;;2.00;;
3726;SDS011;1879;45.876;12.300;2023-07-31T13:59:18;3.10;;;2.10;;
3726;SDS011;1879;45.876;12.300;2023-07-31T14:01:45;3.60;;;1.70;;
3726;SDS011;1879;45.876;12.300;2023-07-31T14:04:12;2.43;;;1.70;;
3726;SDS011;1879;45.876;12.300;2023-07-31T14:06:40;2.10;;;2.00;;
3726;SDS011;1879;45.876;12.300;2023-07-31T14:09:07;3.40;;;2.33;;
3726;SDS011;1879;45.876;12.300;2023-07-31T14:11:35;1.90;;;1.80;;
3726;SDS011;1879;45.876;12.300;2023-07-31T14:14:03;2.23;;;2.03;;
3726;SDS011;1879;45.876;12.300;2023-07-31T14:16:30;2.33;;;2.20;;
3726;SDS011;1879;45.876;12.300;2023-07-31T14:18:57;2.93;;;2.30;;
3726;SDS011;1879;45.876;12.300;2023-07-31T14:21:25;1.87;;;1.77;;
3726;SDS011;1879;45.876;12.300;2023-07-31T14:23:52;2.43;;;2.23;;
3726;SDS011;1879;45.876;12.300;2023-07-31T14:26:19;2.10;;;1.90;;
3726;SDS011;1879;45.876;12.300;2023-07-31T14:28:47;2.37;;;2.20;;
3726;SDS011;1879;45.876;12.300;2023-07-31T14:31:14;3.07;;;2.20;;
3726;SDS011;1879;45.876;12.300;2023-07-31T14:33:41;2.50;;;2.20;;
3726;SDS011;1879;45.876;12.300;2023-07-31T14:36:08;2.20;;;2.00;;
3726;SDS011;1879;45.876;12.300;2023-07-31T14:38:35;2.10;;;1.90;;
3726;SDS011;1879;45.876;12.300;2023-07-31T14:41:02;2.80;;;2.50;;
3726;SDS011;1879;45.876;12.300;2023-07-31T14:43:29;1.80;;;1.70;;
3726;SDS011;1879;45.876;12.300;2023-07-31T14:45:58;2.70;;;2.50;;
3726;SDS011;1879;45.876;12.300;2023-07-31T14:48:25;3.53;;;2.37;;
3726;SDS011;1879;45.876;12.300;2023-07-31T14:50:52;2.47;;;2.27;;
3726;SDS011;1879;45.876;12.300;2023-07-31T14:53:20;2.33;;;1.90;;
3726;SDS011;1879;45.876;12.300;2023-07-31T14:55:47;2.90;;;1.73;;
3726;SDS011;1879;45.876;12.300;2023-07-31T14:58:14;2.20;;;2.00;;
3726;SDS011;1879;45.876;12.300;2023-07-31T15:00:42;2.70;;;2.50;;
3726;SDS011;1879;45.876;12.300;2023-07-31T15:03:10;2.20;;;2.00;;